EZY14ZG LSGG-EGPH
Flight info
| Callsign | EZY14ZG |
|---|---|
| Flight time | 1h 48m |
| Altitude | 38000 |
| Route | DIPIR T37 IBABA DCT TUTAX DCT OBURO DCT OKRIX DCT CLM DCT KOPOR DCT VESAN DCT RATUK DCT SOVAT L613 LEHOC DCT INPIP |
| Aircraft | A320/M-SDE3FGHIRWY/LB1 |
Departure
| Time | 2026-05-05 19:25 |
|---|---|
| Airport | Geneva International Airport (LSGG) |
Arrival
| Time | 2026-05-05 21:13 |
|---|---|
| Airport | Edinburgh Airport (EGPH) |
| Time | Latitude | Longitude | Altitude | Speed | Heading |
|---|---|---|---|---|---|
| 2026-05-05 18:49 | 46.23560 | 6.11012 | 1401 ft | 0 kts | 135° |
| 2026-05-05 18:58 | 46.23560 | 6.11011 | 1393 ft | 0 kts | 135° |
| 2026-05-05 19:18 | 46.23543 | 6.11036 | 1405 ft | 6 kts | 135° |
| 2026-05-05 19:18 | 46.23522 | 6.11079 | 1401 ft | 5 kts | 103° |
| 2026-05-05 19:18 | 46.23576 | 6.11158 | 1399 ft | 15 kts | 12° |
| 2026-05-05 19:19 | 46.23655 | 6.11089 | 1394 ft | 13 kts | 314° |
| 2026-05-05 19:19 | 46.23727 | 6.11112 | 1382 ft | 15 kts | 46° |
| 2026-05-05 19:19 | 46.23810 | 6.11234 | 1378 ft | 18 kts | 46° |
| 2026-05-05 19:19 | 46.23899 | 6.11366 | 1376 ft | 19 kts | 45° |
| 2026-05-05 19:20 | 46.23996 | 6.11515 | 1372 ft | 22 kts | 44° |
| 2026-05-05 19:20 | 46.24112 | 6.11678 | 1367 ft | 25 kts | 46° |
| 2026-05-05 19:20 | 46.24244 | 6.11872 | 1362 ft | 29 kts | 46° |
| 2026-05-05 19:20 | 46.24384 | 6.12076 | 1368 ft | 28 kts | 46° |
| 2026-05-05 19:21 | 46.24471 | 6.12206 | 1372 ft | 27 kts | 45° |
| 2026-05-05 19:21 | 46.24653 | 6.12474 | 1366 ft | 31 kts | 45° |
| 2026-05-05 19:21 | 46.24768 | 6.12641 | 1362 ft | 15 kts | 44° |
| 2026-05-05 19:21 | 46.24850 | 6.12693 | 1363 ft | 11 kts | 17° |
| 2026-05-05 19:22 | 46.24912 | 6.12719 | 1366 ft | 8 kts | 17° |
| 2026-05-05 19:22 | 46.24960 | 6.12730 | 1369 ft | 12 kts | 351° |
| 2026-05-05 19:22 | 46.24997 | 6.12666 | 1371 ft | 9 kts | 274° |
| 2026-05-05 19:22 | 46.24963 | 6.12594 | 1372 ft | 0 kts | 226° |
| 2026-05-05 19:24 | 46.24959 | 6.12589 | 1372 ft | 7 kts | 226° |
| 2026-05-05 19:24 | 46.24738 | 6.12259 | 1372 ft | 83 kts | 225° |
| 2026-05-05 19:24 | 46.24184 | 6.11448 | 1374 ft | 141 kts | 225° |
| 2026-05-05 19:24 | 46.23385 | 6.10280 | 1587 ft | 169 kts | 224° |
| 2026-05-05 19:25 | 46.22583 | 6.09060 | 2309 ft | 167 kts | 225° |
| 2026-05-05 19:25 | 46.21789 | 6.07888 | 2916 ft | 175 kts | 224° |
| 2026-05-05 19:25 | 46.20877 | 6.06558 | 3241 ft | 197 kts | 224° |
| 2026-05-05 19:25 | 46.19852 | 6.05070 | 3555 ft | 222 kts | 224° |
| 2026-05-05 19:26 | 46.18721 | 6.03429 | 4009 ft | 244 kts | 224° |
| 2026-05-05 19:26 | 46.17503 | 6.01662 | 4849 ft | 252 kts | 225° |
| 2026-05-05 19:26 | 46.16263 | 5.99860 | 5809 ft | 254 kts | 225° |
| 2026-05-05 19:26 | 46.15028 | 5.98029 | 6759 ft | 256 kts | 226° |
| 2026-05-05 19:27 | 46.13902 | 5.96026 | 7633 ft | 260 kts | 241° |
| 2026-05-05 19:27 | 46.13411 | 5.93490 | 8480 ft | 269 kts | 265° |
| 2026-05-05 19:27 | 46.13714 | 5.90801 | 9339 ft | 279 kts | 289° |
| 2026-05-05 19:27 | 46.14821 | 5.88453 | 10170 ft | 291 kts | 314° |
| 2026-05-05 19:28 | 46.16606 | 5.86988 | 10927 ft | 304 kts | 340° |
| 2026-05-05 19:28 | 46.18751 | 5.86270 | 11198 ft | 330 kts | 346° |
| 2026-05-05 19:28 | 46.21053 | 5.85634 | 11720 ft | 342 kts | 347° |
| 2026-05-05 19:28 | 46.23417 | 5.85024 | 12408 ft | 347 kts | 347° |
| 2026-05-05 19:29 | 46.25810 | 5.84410 | 13114 ft | 352 kts | 347° |
| 2026-05-05 19:29 | 46.28234 | 5.83774 | 13862 ft | 356 kts | 347° |
| 2026-05-05 19:29 | 46.30682 | 5.83115 | 14526 ft | 360 kts | 347° |
| 2026-05-05 19:29 | 46.33126 | 5.82442 | 14816 ft | 362 kts | 347° |
| 2026-05-05 19:30 | 46.35597 | 5.81753 | 15009 ft | 364 kts | 346° |
| 2026-05-05 19:30 | 46.38069 | 5.80936 | 15713 ft | 364 kts | 338° |
| 2026-05-05 19:30 | 46.40298 | 5.79245 | 16390 ft | 362 kts | 322° |
| 2026-05-05 19:30 | 46.42364 | 5.77127 | 17064 ft | 365 kts | 321° |
| 2026-05-05 19:31 | 46.44436 | 5.74974 | 17731 ft | 368 kts | 321° |
| 2026-05-05 19:31 | 46.46523 | 5.72789 | 18365 ft | 371 kts | 321° |
| 2026-05-05 19:31 | 46.48597 | 5.70616 | 18916 ft | 375 kts | 321° |
| 2026-05-05 19:31 | 46.50681 | 5.68431 | 19456 ft | 379 kts | 321° |
| 2026-05-05 19:32 | 46.51875 | 5.67182 | 19767 ft | 381 kts | 321° |
| 2026-05-05 19:32 | 46.53995 | 5.64962 | 20306 ft | 385 kts | 321° |
| 2026-05-05 19:32 | 46.56171 | 5.62681 | 20862 ft | 388 kts | 321° |
| 2026-05-05 19:32 | 46.58378 | 5.60365 | 21405 ft | 392 kts | 321° |
| 2026-05-05 19:33 | 46.60606 | 5.58024 | 21956 ft | 396 kts | 321° |
| 2026-05-05 19:33 | 46.62858 | 5.55658 | 22498 ft | 400 kts | 321° |
| 2026-05-05 19:33 | 46.65122 | 5.53282 | 23028 ft | 404 kts | 321° |
| 2026-05-05 19:33 | 46.67420 | 5.50868 | 23534 ft | 409 kts | 320° |
| 2026-05-05 19:34 | 46.69708 | 5.48463 | 23962 ft | 412 kts | 320° |
| 2026-05-05 19:34 | 46.72063 | 5.45981 | 24406 ft | 415 kts | 320° |
| 2026-05-05 19:34 | 46.74414 | 5.43500 | 24838 ft | 418 kts | 320° |
| 2026-05-05 19:35 | 46.79162 | 5.38483 | 25685 ft | 424 kts | 320° |
| 2026-05-05 19:35 | 46.81525 | 5.35979 | 26087 ft | 427 kts | 320° |
| 2026-05-05 19:35 | 46.83935 | 5.33419 | 26492 ft | 429 kts | 320° |
| 2026-05-05 19:35 | 46.86352 | 5.30847 | 26890 ft | 432 kts | 320° |
| 2026-05-05 19:36 | 46.88789 | 5.28254 | 27279 ft | 434 kts | 320° |
| 2026-05-05 19:36 | 46.91300 | 5.25746 | 27666 ft | 439 kts | 324° |
| 2026-05-05 19:36 | 46.93913 | 5.23399 | 28071 ft | 442 kts | 325° |
| 2026-05-05 19:36 | 46.96564 | 5.21098 | 28446 ft | 445 kts | 326° |
| 2026-05-05 19:37 | 46.99243 | 5.18818 | 28821 ft | 447 kts | 326° |
| 2026-05-05 19:37 | 47.01948 | 5.16533 | 29192 ft | 449 kts | 327° |
| 2026-05-05 19:37 | 47.04659 | 5.14233 | 29552 ft | 451 kts | 327° |
| 2026-05-05 19:37 | 47.07377 | 5.11902 | 29881 ft | 453 kts | 326° |
| 2026-05-05 19:38 | 47.10095 | 5.09548 | 30195 ft | 455 kts | 326° |
| 2026-05-05 19:38 | 47.12818 | 5.07176 | 30486 ft | 456 kts | 326° |
| 2026-05-05 19:38 | 47.15550 | 5.04787 | 30786 ft | 458 kts | 326° |
| 2026-05-05 19:38 | 47.18298 | 5.02387 | 31053 ft | 459 kts | 326° |
| 2026-05-05 19:39 | 47.21049 | 4.99987 | 31310 ft | 461 kts | 327° |
| 2026-05-05 19:39 | 47.23776 | 4.97607 | 31636 ft | 461 kts | 327° |
| 2026-05-05 19:39 | 47.26525 | 4.95200 | 31994 ft | 460 kts | 327° |
| 2026-05-05 19:39 | 47.29272 | 4.92790 | 32354 ft | 459 kts | 327° |
| 2026-05-05 19:40 | 47.32013 | 4.90384 | 32705 ft | 459 kts | 327° |
| 2026-05-05 19:40 | 47.34754 | 4.87977 | 33060 ft | 458 kts | 327° |
| 2026-05-05 19:40 | 47.37408 | 4.85645 | 33395 ft | 458 kts | 327° |
| 2026-05-05 19:40 | 47.40186 | 4.83203 | 33748 ft | 458 kts | 327° |
| 2026-05-05 19:41 | 47.42917 | 4.80797 | 34047 ft | 458 kts | 327° |
| 2026-05-05 19:41 | 47.45649 | 4.78387 | 34334 ft | 457 kts | 327° |
| 2026-05-05 19:41 | 47.48346 | 4.76007 | 34610 ft | 457 kts | 327° |
| 2026-05-05 19:41 | 47.51074 | 4.73598 | 34877 ft | 457 kts | 327° |
| 2026-05-05 19:42 | 47.53801 | 4.71186 | 35141 ft | 456 kts | 327° |
| 2026-05-05 19:42 | 47.56521 | 4.68776 | 35400 ft | 456 kts | 327° |
| 2026-05-05 19:42 | 47.59241 | 4.66356 | 35651 ft | 455 kts | 327° |
| 2026-05-05 19:42 | 47.61958 | 4.63933 | 35904 ft | 455 kts | 327° |
| 2026-05-05 19:43 | 47.64667 | 4.61521 | 36154 ft | 454 kts | 327° |
| 2026-05-05 19:43 | 47.67374 | 4.59110 | 36399 ft | 454 kts | 327° |
| 2026-05-05 19:43 | 47.70085 | 4.56692 | 36634 ft | 454 kts | 327° |
| 2026-05-05 19:43 | 47.72785 | 4.54283 | 36862 ft | 453 kts | 327° |
| 2026-05-05 19:44 | 47.75491 | 4.51868 | 37087 ft | 453 kts | 327° |
| 2026-05-05 19:44 | 47.78193 | 4.49452 | 37300 ft | 453 kts | 327° |
| 2026-05-05 19:44 | 47.80890 | 4.47034 | 37504 ft | 452 kts | 327° |
| 2026-05-05 19:44 | 47.83582 | 4.44616 | 37699 ft | 452 kts | 327° |
| 2026-05-05 19:45 | 47.86274 | 4.42192 | 37832 ft | 452 kts | 327° |
| 2026-05-05 19:45 | 47.91653 | 4.37347 | 37846 ft | 451 kts | 327° |
| 2026-05-05 19:46 | 47.97021 | 4.32512 | 37844 ft | 451 kts | 327° |
| 2026-05-05 19:46 | 48.02395 | 4.27660 | 37836 ft | 451 kts | 327° |
| 2026-05-05 19:47 | 48.07760 | 4.22797 | 37833 ft | 451 kts | 327° |
| 2026-05-05 19:47 | 48.13087 | 4.17942 | 37833 ft | 451 kts | 327° |
| 2026-05-05 19:48 | 48.18441 | 4.13052 | 37832 ft | 451 kts | 327° |
| 2026-05-05 19:48 | 48.23794 | 4.08162 | 37827 ft | 451 kts | 327° |
| 2026-05-05 19:49 | 48.29155 | 4.03259 | 37823 ft | 451 kts | 327° |
| 2026-05-05 19:49 | 48.34513 | 3.98347 | 37826 ft | 451 kts | 327° |
| 2026-05-05 19:50 | 48.39866 | 3.93422 | 37823 ft | 451 kts | 327° |
| 2026-05-05 19:50 | 48.45218 | 3.88482 | 37824 ft | 451 kts | 327° |
| 2026-05-05 19:51 | 48.50567 | 3.83529 | 37827 ft | 451 kts | 327° |
| 2026-05-05 19:51 | 48.55889 | 3.78584 | 37821 ft | 451 kts | 327° |
| 2026-05-05 19:52 | 48.61235 | 3.73617 | 37826 ft | 451 kts | 327° |
| 2026-05-05 19:52 | 48.66582 | 3.68639 | 37824 ft | 451 kts | 327° |
| 2026-05-05 19:53 | 48.71922 | 3.63641 | 37824 ft | 451 kts | 327° |
| 2026-05-05 19:53 | 48.77240 | 3.58653 | 37829 ft | 451 kts | 327° |
| 2026-05-05 19:54 | 48.82578 | 3.53647 | 37829 ft | 451 kts | 327° |
| 2026-05-05 19:54 | 48.87915 | 3.48625 | 37832 ft | 451 kts | 327° |
| 2026-05-05 19:55 | 48.93252 | 3.43586 | 37837 ft | 452 kts | 327° |
| 2026-05-05 19:55 | 48.98557 | 3.38567 | 37840 ft | 452 kts | 327° |
| 2026-05-05 19:56 | 49.03895 | 3.33504 | 37834 ft | 452 kts | 327° |
| 2026-05-05 19:56 | 49.09231 | 3.28440 | 37839 ft | 452 kts | 327° |
| 2026-05-05 19:57 | 49.14561 | 3.23361 | 37836 ft | 452 kts | 327° |
| 2026-05-05 19:57 | 49.19888 | 3.18253 | 37840 ft | 452 kts | 327° |
| 2026-05-05 19:58 | 49.25210 | 3.13145 | 37840 ft | 452 kts | 327° |
| 2026-05-05 19:58 | 49.30538 | 3.08025 | 37848 ft | 452 kts | 327° |
| 2026-05-05 19:59 | 49.35868 | 3.02898 | 37851 ft | 452 kts | 327° |
| 2026-05-05 19:59 | 49.41200 | 2.97752 | 37856 ft | 452 kts | 327° |
| 2026-05-05 20:00 | 49.46519 | 2.92597 | 37860 ft | 452 kts | 326° |
| 2026-05-05 20:00 | 49.51796 | 2.87465 | 37860 ft | 452 kts | 326° |
| 2026-05-05 20:01 | 49.57148 | 2.82259 | 37862 ft | 452 kts | 326° |
| 2026-05-05 20:01 | 49.62424 | 2.77111 | 37861 ft | 452 kts | 326° |
| 2026-05-05 20:02 | 49.67734 | 2.71923 | 37870 ft | 452 kts | 326° |
| 2026-05-05 20:02 | 49.73038 | 2.66715 | 37878 ft | 452 kts | 326° |
| 2026-05-05 20:03 | 49.78338 | 2.61493 | 37879 ft | 451 kts | 326° |
| 2026-05-05 20:03 | 49.83634 | 2.56269 | 37881 ft | 452 kts | 326° |
| 2026-05-05 20:04 | 49.88935 | 2.51028 | 37885 ft | 452 kts | 326° |
| 2026-05-05 20:04 | 49.94231 | 2.45777 | 37885 ft | 452 kts | 326° |
| 2026-05-05 20:05 | 49.99537 | 2.40504 | 37891 ft | 452 kts | 326° |
| 2026-05-05 20:05 | 50.04835 | 2.35218 | 37897 ft | 452 kts | 326° |
| 2026-05-05 20:06 | 50.10128 | 2.29934 | 37906 ft | 452 kts | 326° |
| 2026-05-05 20:06 | 50.15418 | 2.24639 | 37914 ft | 452 kts | 326° |
| 2026-05-05 20:07 | 50.20702 | 2.19312 | 37922 ft | 451 kts | 326° |
| 2026-05-05 20:07 | 50.25944 | 2.14025 | 37925 ft | 451 kts | 326° |
| 2026-05-05 20:08 | 50.31212 | 2.08711 | 37921 ft | 450 kts | 326° |
| 2026-05-05 20:08 | 50.36462 | 2.03373 | 37925 ft | 450 kts | 323° |
| 2026-05-05 20:09 | 50.41264 | 1.97142 | 37934 ft | 448 kts | 317° |
| 2026-05-05 20:09 | 50.45164 | 1.91822 | 37934 ft | 447 kts | 317° |
| 2026-05-05 20:10 | 50.49858 | 1.85411 | 37934 ft | 447 kts | 317° |
| 2026-05-05 20:10 | 50.54539 | 1.78996 | 37936 ft | 446 kts | 317° |
| 2026-05-05 20:11 | 50.59210 | 1.72583 | 37936 ft | 446 kts | 317° |
| 2026-05-05 20:11 | 50.63878 | 1.66158 | 37938 ft | 445 kts | 317° |
| 2026-05-05 20:12 | 50.68534 | 1.59721 | 37939 ft | 445 kts | 317° |
| 2026-05-05 20:12 | 50.73182 | 1.53280 | 37940 ft | 444 kts | 317° |
| 2026-05-05 20:13 | 50.77821 | 1.46837 | 37940 ft | 444 kts | 316° |
| 2026-05-05 20:13 | 50.82456 | 1.40387 | 37944 ft | 444 kts | 317° |
| 2026-05-05 20:14 | 50.87087 | 1.33924 | 37948 ft | 444 kts | 316° |
| 2026-05-05 20:14 | 50.91716 | 1.27439 | 37949 ft | 444 kts | 316° |
| 2026-05-05 20:15 | 50.96347 | 1.20945 | 37951 ft | 445 kts | 316° |
| 2026-05-05 20:15 | 51.00953 | 1.14463 | 37953 ft | 445 kts | 317° |
| 2026-05-05 20:16 | 51.05588 | 1.07918 | 37958 ft | 445 kts | 317° |
| 2026-05-05 20:16 | 51.10618 | 1.02120 | 37960 ft | 447 kts | 324° |
| 2026-05-05 20:17 | 51.15730 | 0.96489 | 37966 ft | 446 kts | 323° |
| 2026-05-05 20:17 | 51.20789 | 0.90872 | 37974 ft | 446 kts | 323° |
| 2026-05-05 20:18 | 51.25874 | 0.85207 | 38031 ft | 445 kts | 323° |
| 2026-05-05 20:18 | 51.30947 | 0.79542 | 38042 ft | 445 kts | 323° |
| 2026-05-05 20:19 | 51.36016 | 0.73878 | 37986 ft | 444 kts | 323° |
| 2026-05-05 20:19 | 51.41072 | 0.68206 | 37990 ft | 444 kts | 323° |
| 2026-05-05 20:20 | 51.46125 | 0.62512 | 37993 ft | 443 kts | 323° |
| 2026-05-05 20:20 | 51.51175 | 0.56818 | 37995 ft | 444 kts | 323° |
| 2026-05-05 20:21 | 51.56221 | 0.51109 | 37997 ft | 443 kts | 323° |
| 2026-05-05 20:21 | 51.60337 | 0.46445 | 37995 ft | 443 kts | 323° |
| 2026-05-05 20:22 | 51.64900 | 0.41262 | 37991 ft | 442 kts | 323° |
| 2026-05-05 20:22 | 51.69730 | 0.35753 | 38006 ft | 442 kts | 323° |
| 2026-05-05 20:23 | 51.74747 | 0.30016 | 38012 ft | 442 kts | 322° |
| 2026-05-05 20:23 | 51.79760 | 0.24280 | 38017 ft | 441 kts | 322° |
| 2026-05-05 20:24 | 51.84765 | 0.18549 | 38021 ft | 441 kts | 322° |
| 2026-05-05 20:24 | 51.88918 | 0.13761 | 38021 ft | 441 kts | 322° |
| 2026-05-05 20:25 | 51.93905 | 0.07983 | 38020 ft | 440 kts | 322° |
| 2026-05-05 20:25 | 51.98880 | 0.02207 | 38014 ft | 440 kts | 322° |
| 2026-05-05 20:26 | 52.03937 | -0.03278 | 38013 ft | 441 kts | 330° |
| 2026-05-05 20:26 | 52.09346 | -0.07970 | 37999 ft | 440 kts | 330° |
| 2026-05-05 20:27 | 52.14747 | -0.12698 | 38007 ft | 440 kts | 329° |
| 2026-05-05 20:27 | 52.20132 | -0.17439 | 38006 ft | 439 kts | 329° |
| 2026-05-05 20:28 | 52.25507 | -0.22193 | 38010 ft | 439 kts | 329° |
| 2026-05-05 20:28 | 52.30846 | -0.26913 | 38011 ft | 439 kts | 329° |
| 2026-05-05 20:29 | 52.36221 | -0.31665 | 38016 ft | 439 kts | 329° |
| 2026-05-05 20:29 | 52.41596 | -0.36439 | 38018 ft | 439 kts | 329° |
| 2026-05-05 20:30 | 52.46966 | -0.41226 | 38019 ft | 439 kts | 329° |
| 2026-05-05 20:30 | 52.52332 | -0.46016 | 38020 ft | 439 kts | 329° |
| 2026-05-05 20:31 | 52.57703 | -0.50826 | 38022 ft | 439 kts | 329° |
| 2026-05-05 20:31 | 52.63076 | -0.55663 | 38022 ft | 440 kts | 329° |
| 2026-05-05 20:32 | 52.68408 | -0.60482 | 38024 ft | 440 kts | 329° |
| 2026-05-05 20:32 | 52.73778 | -0.65324 | 38027 ft | 440 kts | 329° |
| 2026-05-05 20:33 | 52.79140 | -0.70181 | 38052 ft | 439 kts | 329° |
| 2026-05-05 20:33 | 52.84491 | -0.75050 | 38054 ft | 439 kts | 329° |
| 2026-05-05 20:34 | 52.89476 | -0.79605 | 38057 ft | 438 kts | 329° |
| 2026-05-05 20:34 | 52.94813 | -0.84480 | 38050 ft | 438 kts | 329° |
| 2026-05-05 20:35 | 53.00145 | -0.89355 | 38051 ft | 437 kts | 329° |
| 2026-05-05 20:35 | 53.05476 | -0.94237 | 38058 ft | 437 kts | 329° |
| 2026-05-05 20:36 | 53.10766 | -0.99116 | 38066 ft | 437 kts | 329° |
| 2026-05-05 20:36 | 53.16106 | -1.04069 | 38062 ft | 436 kts | 329° |
| 2026-05-05 20:37 | 53.21370 | -1.08953 | 38069 ft | 436 kts | 329° |
| 2026-05-05 20:37 | 53.26662 | -1.13862 | 38078 ft | 435 kts | 329° |
| 2026-05-05 20:38 | 53.30816 | -1.17717 | 38071 ft | 435 kts | 329° |
| 2026-05-05 20:38 | 53.35247 | -1.21845 | 38082 ft | 434 kts | 329° |
| 2026-05-05 20:39 | 53.40525 | -1.26786 | 38077 ft | 434 kts | 328° |
| 2026-05-05 20:39 | 53.45799 | -1.31738 | 38082 ft | 433 kts | 328° |
| 2026-05-05 20:40 | 53.51048 | -1.36699 | 38079 ft | 433 kts | 328° |
| 2026-05-05 20:40 | 53.55890 | -1.41286 | 38086 ft | 432 kts | 328° |
| 2026-05-05 20:41 | 53.61099 | -1.46217 | 38087 ft | 432 kts | 328° |
| 2026-05-05 20:41 | 53.66337 | -1.51200 | 38083 ft | 432 kts | 328° |
| 2026-05-05 20:42 | 53.71565 | -1.56195 | 38079 ft | 432 kts | 328° |
| 2026-05-05 20:42 | 53.76301 | -1.62293 | 38069 ft | 427 kts | 315° |
| 2026-05-05 20:43 | 53.80671 | -1.69027 | 38064 ft | 428 kts | 315° |
| 2026-05-05 20:43 | 53.85072 | -1.75802 | 38063 ft | 428 kts | 315° |
| 2026-05-05 20:44 | 53.89484 | -1.82594 | 38070 ft | 428 kts | 315° |
| 2026-05-05 20:44 | 53.93894 | -1.89417 | 38077 ft | 429 kts | 315° |
| 2026-05-05 20:45 | 54.00487 | -1.99688 | 38092 ft | 429 kts | 316° |
| 2026-05-05 20:45 | 54.05435 | -2.05428 | 38104 ft | 432 kts | 327° |
| 2026-05-05 20:46 | 54.10622 | -2.10597 | 38112 ft | 432 kts | 327° |
| 2026-05-05 20:46 | 54.15797 | -2.15801 | 38115 ft | 432 kts | 327° |
| 2026-05-05 20:47 | 54.20967 | -2.21017 | 38111 ft | 431 kts | 327° |
| 2026-05-05 20:47 | 54.23568 | -2.23646 | 37934 ft | 439 kts | 327° |
| 2026-05-05 20:47 | 54.26206 | -2.26312 | 37651 ft | 442 kts | 326° |
| 2026-05-05 20:48 | 54.28850 | -2.28987 | 37378 ft | 441 kts | 326° |
| 2026-05-05 20:48 | 54.31481 | -2.31651 | 37114 ft | 438 kts | 326° |
| 2026-05-05 20:48 | 54.34088 | -2.34293 | 36649 ft | 432 kts | 326° |
| 2026-05-05 20:48 | 54.36626 | -2.36877 | 36176 ft | 428 kts | 326° |
| 2026-05-05 20:49 | 54.39172 | -2.39477 | 35672 ft | 424 kts | 326° |
| 2026-05-05 20:49 | 54.41701 | -2.42064 | 35158 ft | 421 kts | 326° |
| 2026-05-05 20:49 | 54.44204 | -2.44622 | 34658 ft | 418 kts | 326° |
| 2026-05-05 20:49 | 54.46701 | -2.47174 | 34146 ft | 415 kts | 326° |
| 2026-05-05 20:50 | 54.49182 | -2.49710 | 33591 ft | 413 kts | 326° |
| 2026-05-05 20:50 | 54.50808 | -2.51373 | 33273 ft | 409 kts | 326° |
| 2026-05-05 20:50 | 54.54055 | -2.54705 | 32610 ft | 404 kts | 326° |
| 2026-05-05 20:50 | 54.56459 | -2.57179 | 32127 ft | 401 kts | 326° |
| 2026-05-05 20:51 | 54.58840 | -2.59633 | 31650 ft | 397 kts | 326° |
| 2026-05-05 20:51 | 54.61203 | -2.62072 | 31179 ft | 394 kts | 326° |
| 2026-05-05 20:51 | 54.63542 | -2.64487 | 30728 ft | 390 kts | 326° |
| 2026-05-05 20:51 | 54.65866 | -2.66892 | 30272 ft | 387 kts | 326° |
| 2026-05-05 20:52 | 54.68168 | -2.69278 | 29777 ft | 384 kts | 326° |
| 2026-05-05 20:52 | 54.70441 | -2.71634 | 29359 ft | 379 kts | 326° |
| 2026-05-05 20:52 | 54.72687 | -2.73965 | 28938 ft | 374 kts | 326° |
| 2026-05-05 20:52 | 54.74871 | -2.76236 | 28539 ft | 370 kts | 326° |
| 2026-05-05 20:53 | 54.77063 | -2.78520 | 28138 ft | 365 kts | 326° |
| 2026-05-05 20:53 | 54.79226 | -2.80778 | 27726 ft | 361 kts | 326° |
| 2026-05-05 20:53 | 54.81369 | -2.83020 | 27324 ft | 358 kts | 326° |
| 2026-05-05 20:53 | 54.83491 | -2.85240 | 26912 ft | 354 kts | 326° |
| 2026-05-05 20:54 | 54.85593 | -2.87438 | 26490 ft | 351 kts | 326° |
| 2026-05-05 20:54 | 54.87695 | -2.89564 | 26069 ft | 349 kts | 330° |
| 2026-05-05 20:54 | 54.89929 | -2.91259 | 25586 ft | 353 kts | 334° |
| 2026-05-05 20:54 | 54.92200 | -2.92906 | 25087 ft | 353 kts | 334° |
| 2026-05-05 20:55 | 54.94464 | -2.94548 | 24596 ft | 353 kts | 334° |
| 2026-05-05 20:55 | 54.96733 | -2.96188 | 24102 ft | 352 kts | 334° |
| 2026-05-05 20:55 | 54.98992 | -2.97823 | 23603 ft | 352 kts | 335° |
| 2026-05-05 20:55 | 55.01251 | -2.99456 | 23063 ft | 350 kts | 334° |
| 2026-05-05 20:56 | 55.03496 | -3.01082 | 22569 ft | 348 kts | 334° |
| 2026-05-05 20:56 | 55.04974 | -3.02154 | 22251 ft | 347 kts | 334° |
| 2026-05-05 20:56 | 55.07194 | -3.03767 | 21770 ft | 345 kts | 334° |
| 2026-05-05 20:56 | 55.09407 | -3.05379 | 21289 ft | 343 kts | 334° |
| 2026-05-05 20:57 | 55.12346 | -3.07524 | 20654 ft | 342 kts | 334° |
| 2026-05-05 20:57 | 55.13801 | -3.08587 | 20336 ft | 341 kts | 334° |
| 2026-05-05 20:57 | 55.15985 | -3.10185 | 19852 ft | 340 kts | 334° |
| 2026-05-05 20:57 | 55.18173 | -3.11790 | 19339 ft | 341 kts | 334° |
| 2026-05-05 20:58 | 55.20360 | -3.13396 | 18837 ft | 341 kts | 334° |
| 2026-05-05 20:58 | 55.22539 | -3.14999 | 18340 ft | 335 kts | 334° |
| 2026-05-05 20:58 | 55.24654 | -3.16551 | 17799 ft | 324 kts | 334° |
| 2026-05-05 20:58 | 55.26695 | -3.18044 | 17325 ft | 313 kts | 334° |
| 2026-05-05 20:59 | 55.28689 | -3.19504 | 16866 ft | 308 kts | 334° |
| 2026-05-05 20:59 | 55.30586 | -3.21083 | 16417 ft | 303 kts | 327° |
| 2026-05-05 20:59 | 55.32398 | -3.22953 | 15972 ft | 301 kts | 327° |
| 2026-05-05 20:59 | 55.34208 | -3.24823 | 15523 ft | 302 kts | 327° |
| 2026-05-05 21:00 | 55.36021 | -3.26691 | 15139 ft | 301 kts | 327° |
| 2026-05-05 21:00 | 55.37828 | -3.28551 | 14712 ft | 302 kts | 327° |
| 2026-05-05 21:00 | 55.39625 | -3.30400 | 14446 ft | 297 kts | 327° |
| 2026-05-05 21:00 | 55.41400 | -3.32226 | 13993 ft | 293 kts | 327° |
| 2026-05-05 21:01 | 55.43150 | -3.34034 | 13303 ft | 290 kts | 327° |
| 2026-05-05 21:01 | 55.44875 | -3.35821 | 12843 ft | 286 kts | 328° |
| 2026-05-05 21:01 | 55.46580 | -3.37583 | 12416 ft | 283 kts | 328° |
| 2026-05-05 21:01 | 55.48279 | -3.39332 | 11999 ft | 281 kts | 328° |
| 2026-05-05 21:02 | 55.49961 | -3.41065 | 11593 ft | 279 kts | 328° |
| 2026-05-05 21:02 | 55.51630 | -3.42794 | 11178 ft | 278 kts | 328° |
| 2026-05-05 21:02 | 55.53288 | -3.44513 | 10765 ft | 275 kts | 328° |
| 2026-05-05 21:02 | 55.54934 | -3.46220 | 10354 ft | 273 kts | 328° |
| 2026-05-05 21:03 | 55.56566 | -3.47912 | 9945 ft | 271 kts | 328° |
| 2026-05-05 21:03 | 55.58187 | -3.49597 | 9613 ft | 265 kts | 328° |
| 2026-05-05 21:03 | 55.59724 | -3.51198 | 9552 ft | 248 kts | 328° |
| 2026-05-05 21:03 | 55.61182 | -3.52719 | 9473 ft | 244 kts | 328° |
| 2026-05-05 21:04 | 55.62654 | -3.54259 | 9365 ft | 246 kts | 328° |
| 2026-05-05 21:04 | 55.64127 | -3.55821 | 9247 ft | 246 kts | 324° |
| 2026-05-05 21:04 | 55.65330 | -3.57964 | 8915 ft | 247 kts | 307° |
| 2026-05-05 21:04 | 55.66435 | -3.60209 | 8577 ft | 245 kts | 316° |
| 2026-05-05 21:05 | 55.67698 | -3.62215 | 8266 ft | 243 kts | 319° |
| 2026-05-05 21:05 | 55.68574 | -3.63517 | 8053 ft | 242 kts | 320° |
| 2026-05-05 21:05 | 55.69883 | -3.65380 | 7724 ft | 241 kts | 322° |
| 2026-05-05 21:05 | 55.71210 | -3.67191 | 7404 ft | 240 kts | 322° |
| 2026-05-05 21:06 | 55.72532 | -3.68999 | 7078 ft | 239 kts | 322° |
| 2026-05-05 21:06 | 55.73834 | -3.70811 | 6658 ft | 236 kts | 321° |
| 2026-05-05 21:06 | 55.75114 | -3.72619 | 6029 ft | 234 kts | 322° |
| 2026-05-05 21:06 | 55.76341 | -3.74525 | 5371 ft | 235 kts | 318° |
| 2026-05-05 21:07 | 55.77518 | -3.76563 | 4699 ft | 237 kts | 319° |
| 2026-05-05 21:07 | 55.78894 | -3.78048 | 4119 ft | 230 kts | 351° |
| 2026-05-05 21:07 | 55.80449 | -3.77888 | 3993 ft | 226 kts | 24° |
| 2026-05-05 21:07 | 55.81673 | -3.76225 | 3993 ft | 225 kts | 55° |
| 2026-05-05 21:08 | 55.82469 | -3.73901 | 3990 ft | 217 kts | 59° |
| 2026-05-05 21:08 | 55.83250 | -3.71622 | 4001 ft | 221 kts | 59° |
| 2026-05-05 21:08 | 55.84064 | -3.69260 | 4002 ft | 225 kts | 59° |
| 2026-05-05 21:08 | 55.84880 | -3.66888 | 3851 ft | 222 kts | 59° |
| 2026-05-05 21:09 | 55.85675 | -3.64573 | 3590 ft | 217 kts | 59° |
| 2026-05-05 21:09 | 55.86464 | -3.62273 | 3302 ft | 213 kts | 59° |
| 2026-05-05 21:09 | 55.87215 | -3.60084 | 3011 ft | 205 kts | 60° |
| 2026-05-05 21:09 | 55.87938 | -3.57971 | 2733 ft | 196 kts | 60° |
| 2026-05-05 21:10 | 55.88642 | -3.55913 | 2471 ft | 192 kts | 60° |
| 2026-05-05 21:10 | 55.89321 | -3.53929 | 2204 ft | 184 kts | 60° |
| 2026-05-05 21:10 | 55.89974 | -3.52016 | 1978 ft | 178 kts | 61° |
| 2026-05-05 21:10 | 55.90603 | -3.50173 | 1706 ft | 168 kts | 60° |
| 2026-05-05 21:11 | 55.91183 | -3.48474 | 1462 ft | 153 kts | 61° |
| 2026-05-05 21:11 | 55.91709 | -3.46932 | 1259 ft | 138 kts | 61° |
| 2026-05-05 21:11 | 55.92189 | -3.45521 | 1072 ft | 130 kts | 62° |
| 2026-05-05 21:11 | 55.92650 | -3.44165 | 879 ft | 127 kts | 62° |
| 2026-05-05 21:12 | 55.93108 | -3.42830 | 703 ft | 126 kts | 61° |
| 2026-05-05 21:12 | 55.93563 | -3.41490 | 498 ft | 125 kts | 62° |
| 2026-05-05 21:12 | 55.94007 | -3.40159 | 322 ft | 125 kts | 62° |
| 2026-05-05 21:12 | 55.94463 | -3.38826 | 181 ft | 125 kts | 62° |
| 2026-05-05 21:13 | 55.94883 | -3.37558 | 113 ft | 104 kts | 60° |
| 2026-05-05 21:13 | 55.95207 | -3.36617 | 114 ft | 77 kts | 58° |
| 2026-05-05 21:13 | 55.95437 | -3.35945 | 109 ft | 48 kts | 59° |
| 2026-05-05 21:13 | 55.95546 | -3.35617 | 113 ft | 15 kts | 58° |
| 2026-05-05 21:14 | 55.95522 | -3.35467 | 112 ft | 16 kts | 149° |
| 2026-05-05 21:14 | 55.95479 | -3.35419 | 112 ft | 2 kts | 149° |
| 2026-05-05 21:14 | 55.95467 | -3.35408 | 113 ft | 4 kts | 156° |
| 2026-05-05 21:14 | 55.95440 | -3.35413 | 113 ft | 7 kts | 203° |
| 2026-05-05 21:15 | 55.95398 | -3.35506 | 113 ft | 10 kts | 238° |
| 2026-05-05 21:15 | 55.95361 | -3.35611 | 111 ft | 10 kts | 238° |
| 2026-05-05 21:15 | 55.95327 | -3.35717 | 112 ft | 10 kts | 240° |
| 2026-05-05 21:15 | 55.95293 | -3.35810 | 112 ft | 8 kts | 225° |
| 2026-05-05 21:16 | 55.95246 | -3.35817 | 112 ft | 7 kts | 152° |
| 2026-05-05 21:16 | 55.95222 | -3.35778 | 112 ft | 0 kts | 130° |
| 2026-05-05 21:16 | 55.95218 | -3.35768 | 112 ft | 6 kts | 124° |
| 2026-05-05 21:17 | 55.95170 | -3.35612 | 112 ft | 18 kts | 118° |
| 2026-05-05 21:17 | 55.95109 | -3.35406 | 112 ft | 17 kts | 118° |
| 2026-05-05 21:17 | 55.95060 | -3.35345 | 112 ft | 10 kts | 188° |
| 2026-05-05 21:17 | 55.95002 | -3.35395 | 112 ft | 9 kts | 209° |
| 2026-05-05 21:18 | 55.94983 | -3.35474 | 112 ft | 7 kts | 299° |
| 2026-05-05 21:18 | 55.95009 | -3.35542 | 112 ft | 6 kts | 303° |
| 2026-05-05 21:18 | 55.95029 | -3.35607 | 112 ft | 6 kts | 297° |
| 2026-05-05 21:18 | 55.95053 | -3.35685 | 112 ft | 7 kts | 299° |
| 2026-05-05 21:19 | 55.95057 | -3.35766 | 112 ft | 9 kts | 251° |
| 2026-05-05 21:19 | 55.94989 | -3.35858 | 112 ft | 13 kts | 201° |
| 2026-05-05 21:19 | 55.94915 | -3.35799 | 112 ft | 13 kts | 121° |
| 2026-05-05 21:19 | 55.94867 | -3.35642 | 112 ft | 16 kts | 118° |
| 2026-05-05 21:20 | 55.94844 | -3.35575 | 111 ft | 0 kts | 135° |
| 2026-05-05 21:20 | 55.94839 | -3.35589 | 112 ft | 3 kts | 244° |
| 2026-05-05 21:20 | 55.94812 | -3.35672 | 112 ft | 9 kts | 212° |
| 2026-05-05 21:20 | 55.94800 | -3.35684 | 112 ft | 0 kts | 209° |